• Join FlightAware (Why Join?)
  • Login
  • US Flag 
09:54AM EDT


 

Airport Tracker/Info


-or-


 

Live Flight TrackerFlight Track Log ✈ UPS1134 ✈ 14-Jun-2013 ✈ KALB - KSYR

Flight Track Log - Related Links

Times and Time Zones

All times are in EDT time to prevent confusion due to time zone crossing. See the UPS1134 flight status page for this flight to view local times or setup timezone preferences in your user account.

Time Position Orientation Groundspeed Altitude Reporting Facility
EDT Latitude Longitude Course Direction KTS MPH feet Rate Location/Type
04:42AM 42.7189 -73.8447 242° Southwest 192 221 2,700  Level Boston Center
04:44AM 42.7294 -73.9889 276° West 269 310 6,400 2,640 Climbing Boston Center
04:45AM 42.7408 -74.0856 279° West 285 328 9,300 2,880 Climbing Boston Center
04:45AM 42.7542 -74.1564 284° West 306 352 10,800 1,560 Climbing Boston Center
04:46AM 42.7658 -74.2133 286° West 307 353 10,900 180 Climbing Boston Center
04:46AM 42.7811 -74.3044 283° West 397 457 11,000 60 Climbing Boston Center
04:47AM 42.7908 -74.3442 288° West 367 422 11,000 -180 Level Boston Center
04:52AM 42.9260 -75.0650 288° West 378 435 10,100 -180 Descending FlightAware
04:53AM 42.9550 -75.1950 287° West 302 348 10,000 -660 Descending FlightAware
04:54AM 42.9770 -75.3140 284° West 296 341 8,700 -1,200 Descending FlightAware
04:54AM 42.9820 -75.3430 283° West 295 339 8,400 -1,260 Descending FlightAware
04:54AM 42.9930 -75.3920 287° West 291 335 7,800 -1,260 Descending FlightAware
04:55AM 42.9980 -75.4180 285° West 288 331 7,500 -1,200 Descending FlightAware
04:55AM 43.0020 -75.4370 286° West 287 330 7,300 -1,260 Descending FlightAware
04:55AM 43.0140 -75.4960 286° West 283 326 6,600 -1,260 Descending FlightAware
04:56AM 43.0310 -75.5830 285° West 278 320 5,600 -1,200 Descending FlightAware
04:57AM 43.0480 -75.6690 285° West 269 310 4,600 -1,200 Descending FlightAware
04:57AM 43.0550 -75.7020 286° West 268 308 4,200 -1,140 Descending FlightAware
04:58AM 43.0620 -75.7400 284° West 264 304 3,800 -1,200 Descending FlightAware
04:58AM 43.0730 -75.7950 285° West 257 296 3,100 -780 Descending FlightAware
04:59AM 43.0790 -75.8260 285° West 255 293 3,100 -240 Level FlightAware
04:59AM 43.0910 -75.8850 286° West 253 291 2,900 -600 Descending FlightAware
05:00AM 43.0960 -75.9100 285° West 249 287 2,600 -660 Descending FlightAware
05:03AM 43.1090 -76.1030 275° West 119 137 700 -600 Descending FlightAware
05:09AM 43.1000 -76.1000 270° West  Level FlightAware Approximate
05:10AM 43.1112 -76.1063 270° West  Level Estimated
05:11AM 43.1112 -76.1063 270° West  Level Estimated
05:12AM 43.1112 -76.1063 270° West  Level Estimated
05:13AM 43.1112 -76.1063 270° West  Level Estimated
05:14AM 43.1112 -76.1063 270° West  Level Estimated
05:15AM 43.1112 -76.1063 270° West  Level Estimated
05:16AM 43.1112 -76.1063 270° West  Level Estimated
05:17AM 43.1112 -76.1063 270° West  Level Estimated